PATA/TAL METAR and TAF weather

Enter ICAO airport designator
Station Type Date Time Source
PATA METAR 2021/09/24 00:52 UTC NOAA

PATA 240052Z 05010KT 10SM FEW080 BKN200 04/M07 A2964 RMK AO2 SLP043 T00391067


Station Type Date Time Source
PATA Decoded METAR 2021/09/24 00:52 UTC NOAA

TANANA CALHOUN MEMORIAL AIRPORT , AK, United States (PATA) 65-10N 152-06W 67M
Sep 23, 2021 - 08:52 PM EDT / 2021.09.24 0052 UTC
Wind: from the NE (050 degrees) at 12 MPH (10 KT):0
Visibility: 10 mile(s):0
Sky conditions: mostly cloudy
Temperature: 39.0 F (3.9 C)
Dew Point: 19.9 F (-6.7 C)
Relative Humidity: 45%
Pressure (altimeter): 29.64 in. Hg (1003 hPa)
ob: PATA 240052Z 05010KT 10SM FEW080 BKN200 04/M07 A2964 RMK AO2 SLP043 T00391067
cycle: 1

Station Type Date Time Source
PATA TAF 2021/09/23 18:33 UTC NOAA

TAF PATA 231730Z 2318/2418 04006KT P6SM FEW180
FM232200 07010KT P6SM SCT200

Example: see airport list